sensor_id;sensor_type;location;lat;lon;timestamp;P1;durP1;ratioP1;P2;durP2;ratioP2
27670;SDS011;15077;49.704;9.908;2023-04-06T00:01:51;7.32;;;4.60;;
27670;SDS011;15077;49.704;9.908;2023-04-06T00:04:17;7.22;;;4.25;;
27670;SDS011;15077;49.704;9.908;2023-04-06T00:06:43;6.80;;;4.90;;
27670;SDS011;15077;49.704;9.908;2023-04-06T00:09:09;6.05;;;4.88;;
27670;SDS011;15077;49.704;9.908;2023-04-06T00:11:35;6.55;;;4.40;;
27670;SDS011;15077;49.704;9.908;2023-04-06T00:14:00;6.65;;;4.18;;
27670;SDS011;15077;49.704;9.908;2023-04-06T00:16:26;6.53;;;4.53;;
27670;SDS011;15077;49.704;9.908;2023-04-06T00:18:52;5.28;;;3.85;;
27670;SDS011;15077;49.704;9.908;2023-04-06T00:21:18;4.85;;;3.63;;
27670;SDS011;15077;49.704;9.908;2023-04-06T00:23:43;7.10;;;4.60;;
27670;SDS011;15077;49.704;9.908;2023-04-06T00:26:09;5.57;;;3.45;;
27670;SDS011;15077;49.704;9.908;2023-04-06T00:28:36;7.03;;;4.38;;
27670;SDS011;15077;49.704;9.908;2023-04-06T00:31:03;5.90;;;4.72;;
27670;SDS011;15077;49.704;9.908;2023-04-06T00:33:29;6.30;;;3.83;;
27670;SDS011;15077;49.704;9.908;2023-04-06T00:35:55;4.53;;;3.38;;
27670;SDS011;15077;49.704;9.908;2023-04-06T00:38:21;5.30;;;3.95;;
27670;SDS011;15077;49.704;9.908;2023-04-06T00:40:47;5.03;;;3.53;;
27670;SDS011;15077;49.704;9.908;2023-04-06T00:43:16;6.05;;;4.22;;
27670;SDS011;15077;49.704;9.908;2023-04-06T00:45:44;6.32;;;4.05;;
27670;SDS011;15077;49.704;9.908;2023-04-06T00:48:10;5.18;;;3.90;;
27670;SDS011;15077;49.704;9.908;2023-04-06T00:50:36;6.80;;;3.72;;
27670;SDS011;15077;49.704;9.908;2023-04-06T00:53:02;5.68;;;3.92;;
27670;SDS011;15077;49.704;9.908;2023-04-06T00:55:27;5.63;;;4.22;;
27670;SDS011;15077;49.704;9.908;2023-04-06T00:57:54;5.18;;;2.97;;
27670;SDS011;15077;49.704;9.908;2023-04-06T01:00:26;6.03;;;3.90;;
27670;SDS011;15077;49.704;9.908;2023-04-06T01:02:52;5.93;;;3.75;;
27670;SDS011;15077;49.704;9.908;2023-04-06T01:05:19;4.82;;;3.83;;
27670;SDS011;15077;49.704;9.908;2023-04-06T01:07:45;4.85;;;3.47;;
27670;SDS011;15077;49.704;9.908;2023-04-06T01:10:23;6.57;;;4.32;;
27670;SDS011;15077;49.704;9.908;2023-04-06T01:12:53;5.13;;;3.70;;
27670;SDS011;15077;49.704;9.908;2023-04-06T01:15:19;4.75;;;3.55;;
27670;SDS011;15077;49.704;9.908;2023-04-06T01:17:47;6.28;;;4.13;;
27670;SDS011;15077;49.704;9.908;2023-04-06T01:20:14;4.38;;;2.92;;
27670;SDS011;15077;49.704;9.908;2023-04-06T01:25:25;4.85;;;3.28;;
27670;SDS011;15077;49.704;9.908;2023-04-06T01:27:51;4.70;;;3.40;;
27670;SDS011;15077;49.704;9.908;2023-04-06T01:30:17;6.30;;;4.10;;
27670;SDS011;15077;49.704;9.908;2023-04-06T01:32:43;5.03;;;3.33;;
27670;SDS011;15077;49.704;9.908;2023-04-06T01:35:11;4.20;;;3.17;;
27670;SDS011;15077;49.704;9.908;2023-04-06T01:37:37;5.18;;;3.33;;
27670;SDS011;15077;49.704;9.908;2023-04-06T01:40:05;5.70;;;3.78;;
27670;SDS011;15077;49.704;9.908;2023-04-06T01:42:33;4.63;;;3.22;;
27670;SDS011;15077;49.704;9.908;2023-04-06T01:44:59;5.03;;;3.67;;
27670;SDS011;15077;49.704;9.908;2023-04-06T01:47:25;6.43;;;4.22;;
27670;SDS011;15077;49.704;9.908;2023-04-06T01:49:51;6.72;;;3.88;;
27670;SDS011;15077;49.704;9.908;2023-04-06T01:52:19;6.18;;;4.18;;
27670;SDS011;15077;49.704;9.908;2023-04-06T01:54:46;4.93;;;3.22;;
27670;SDS011;15077;49.704;9.908;2023-04-06T01:57:12;5.10;;;3.65;;
27670;SDS011;15077;49.704;9.908;2023-04-06T01:59:43;6.38;;;3.83;;
27670;SDS011;15077;49.704;9.908;2023-04-06T02:02:11;5.53;;;3.55;;
27670;SDS011;15077;49.704;9.908;2023-04-06T02:04:38;6.03;;;3.47;;
27670;SDS011;15077;49.704;9.908;2023-04-06T02:07:04;5.80;;;3.63;;
27670;SDS011;15077;49.704;9.908;2023-04-06T02:09:30;5.00;;;3.78;;
27670;SDS011;15077;49.704;9.908;2023-04-06T02:11:56;5.65;;;3.60;;
27670;SDS011;15077;49.704;9.908;2023-04-06T02:14:25;4.93;;;3.90;;
27670;SDS011;15077;49.704;9.908;2023-04-06T02:16:53;4.78;;;3.25;;
27670;SDS011;15077;49.704;9.908;2023-04-06T02:19:20;4.93;;;3.33;;
27670;SDS011;15077;49.704;9.908;2023-04-06T02:21:46;5.97;;;3.25;;
27670;SDS011;15077;49.704;9.908;2023-04-06T02:24:13;5.57;;;4.13;;
27670;SDS011;15077;49.704;9.908;2023-04-06T02:26:42;3.70;;;3.35;;
27670;SDS011;15077;49.704;9.908;2023-04-06T02:29:08;4.75;;;3.30;;
27670;SDS011;15077;49.704;9.908;2023-04-06T02:31:36;6.70;;;3.42;;
27670;SDS011;15077;49.704;9.908;2023-04-06T02:34:04;5.50;;;4.00;;
27670;SDS011;15077;49.704;9.908;2023-04-06T02:36:30;5.10;;;3.58;;
27670;SDS011;15077;49.704;9.908;2023-04-06T02:38:57;4.80;;;4.13;;
27670;SDS011;15077;49.704;9.908;2023-04-06T02:41:22;6.70;;;4.30;;
27670;SDS011;15077;49.704;9.908;2023-04-06T02:43:49;5.55;;;3.90;;
27670;SDS011;15077;49.704;9.908;2023-04-06T02:46:16;5.43;;;3.80;;
27670;SDS011;15077;49.704;9.908;2023-04-06T02:48:44;6.28;;;4.20;;
27670;SDS011;15077;49.704;9.908;2023-04-06T02:51:11;5.47;;;4.15;;
27670;SDS011;15077;49.704;9.908;2023-04-06T02:53:37;6.22;;;4.18;;
27670;SDS011;15077;49.704;9.908;2023-04-06T02:56:04;5.28;;;3.47;;
27670;SDS011;15077;49.704;9.908;2023-04-06T02:58:30;7.63;;;4.25;;
27670;SDS011;15077;49.704;9.908;2023-04-06T03:00:58;4.55;;;3.33;;
27670;SDS011;15077;49.704;9.908;2023-04-06T03:03:25;6.10;;;3.65;;
27670;SDS011;15077;49.704;9.908;2023-04-06T03:05:51;5.32;;;3.60;;
27670;SDS011;15077;49.704;9.908;2023-04-06T03:08:19;4.32;;;3.53;;
27670;SDS011;15077;49.704;9.908;2023-04-06T03:10:45;5.40;;;4.30;;
27670;SDS011;15077;49.704;9.908;2023-04-06T03:13:11;4.07;;;3.47;;
27670;SDS011;15077;49.704;9.908;2023-04-06T03:15:38;4.65;;;3.78;;
27670;SDS011;15077;49.704;9.908;2023-04-06T03:18:04;6.03;;;4.10;;
27670;SDS011;15077;49.704;9.908;2023-04-06T03:20:31;5.20;;;3.58;;
27670;SDS011;15077;49.704;9.908;2023-04-06T03:22:58;6.40;;;4.00;;
27670;SDS011;15077;49.704;9.908;2023-04-06T03:25:26;5.05;;;3.88;;
27670;SDS011;15077;49.704;9.908;2023-04-06T03:27:55;6.25;;;3.92;;
27670;SDS011;15077;49.704;9.908;2023-04-06T03:30:23;5.25;;;3.65;;
27670;SDS011;15077;49.704;9.908;2023-04-06T03:32:49;6.13;;;3.92;;
27670;SDS011;15077;49.704;9.908;2023-04-06T03:35:15;4.55;;;3.97;;
27670;SDS011;15077;49.704;9.908;2023-04-06T03:37:43;5.82;;;4.30;;
27670;SDS011;15077;49.704;9.908;2023-04-06T03:40:10;6.40;;;4.50;;
27670;SDS011;15077;49.704;9.908;2023-04-06T03:42:36;6.18;;;3.92;;
27670;SDS011;15077;49.704;9.908;2023-04-06T03:45:02;4.95;;;4.43;;
27670;SDS011;15077;49.704;9.908;2023-04-06T03:47:28;6.97;;;4.93;;
27670;SDS011;15077;49.704;9.908;2023-04-06T03:49:54;7.88;;;5.57;;
27670;SDS011;15077;49.704;9.908;2023-04-06T03:52:20;7.03;;;4.75;;
27670;SDS011;15077;49.704;9.908;2023-04-06T03:54:48;8.88;;;5.80;;
27670;SDS011;15077;49.704;9.908;2023-04-06T03:57:15;7.13;;;4.50;;
27670;SDS011;15077;49.704;9.908;2023-04-06T03:59:42;6.32;;;4.40;;
27670;SDS011;15077;49.704;9.908;2023-04-06T04:02:08;6.07;;;4.40;;
27670;SDS011;15077;49.704;9.908;2023-04-06T04:04:33;6.22;;;4.88;;
27670;SDS011;15077;49.704;9.908;2023-04-06T04:07:00;6.65;;;4.28;;
27670;SDS011;15077;49.704;9.908;2023-04-06T04:09:26;7.45;;;4.68;;
27670;SDS011;15077;49.704;9.908;2023-04-06T04:11:52;6.97;;;4.57;;
27670;SDS011;15077;49.704;9.908;2023-04-06T04:14:17;6.18;;;4.22;;
27670;SDS011;15077;49.704;9.908;2023-04-06T04:16:43;7.68;;;5.15;;
27670;SDS011;15077;49.704;9.908;2023-04-06T04:19:09;6.22;;;4.25;;
27670;SDS011;15077;49.704;9.908;2023-04-06T04:21:41;6.75;;;5.03;;
27670;SDS011;15077;49.704;9.908;2023-04-06T04:24:12;5.93;;;4.00;;
27670;SDS011;15077;49.704;9.908;2023-04-06T04:26:38;5.95;;;4.45;;
27670;SDS011;15077;49.704;9.908;2023-04-06T04:29:05;5.68;;;4.50;;
27670;SDS011;15077;49.704;9.908;2023-04-06T04:31:31;6.43;;;4.30;;
27670;SDS011;15077;49.704;9.908;2023-04-06T04:33:57;6.15;;;4.82;;
27670;SDS011;15077;49.704;9.908;2023-04-06T04:36:25;6.28;;;4.72;;
27670;SDS011;15077;49.704;9.908;2023-04-06T04:38:51;6.40;;;4.75;;
27670;SDS011;15077;49.704;9.908;2023-04-06T04:41:17;7.00;;;4.90;;
27670;SDS011;15077;49.704;9.908;2023-04-06T04:43:43;6.82;;;5.13;;
27670;SDS011;15077;49.704;9.908;2023-04-06T04:46:09;6.35;;;4.65;;
27670;SDS011;15077;49.704;9.908;2023-04-06T04:48:35;7.72;;;4.55;;
27670;SDS011;15077;49.704;9.908;2023-04-06T04:51:01;5.80;;;4.20;;
27670;SDS011;15077;49.704;9.908;2023-04-06T04:53:27;5.65;;;4.50;;
27670;SDS011;15077;49.704;9.908;2023-04-06T04:55:52;10.80;;;6.03;;
27670;SDS011;15077;49.704;9.908;2023-04-06T04:58:18;6.78;;;5.05;;
27670;SDS011;15077;49.704;9.908;2023-04-06T05:00:45;8.38;;;5.65;;
27670;SDS011;15077;49.704;9.908;2023-04-06T05:03:24;7.50;;;4.95;;
27670;SDS011;15077;49.704;9.908;2023-04-06T05:05:51;5.80;;;4.20;;
27670;SDS011;15077;49.704;9.908;2023-04-06T05:08:17;7.53;;;5.55;;
27670;SDS011;15077;49.704;9.908;2023-04-06T05:10:43;5.93;;;5.20;;
27670;SDS011;15077;49.704;9.908;2023-04-06T05:13:10;7.78;;;5.28;;
27670;SDS011;15077;49.704;9.908;2023-04-06T05:15:36;7.18;;;5.00;;
27670;SDS011;15077;49.704;9.908;2023-04-06T05:18:08;6.32;;;4.45;;
27670;SDS011;15077;49.704;9.908;2023-04-06T05:20:35;6.20;;;5.05;;
27670;SDS011;15077;49.704;9.908;2023-04-06T05:23:00;7.85;;;5.35;;
27670;SDS011;15077;49.704;9.908;2023-04-06T05:25:26;6.38;;;4.57;;
27670;SDS011;15077;49.704;9.908;2023-04-06T05:27:52;6.60;;;4.57;;
27670;SDS011;15077;49.704;9.908;2023-04-06T05:30:18;6.70;;;5.25;;
27670;SDS011;15077;49.704;9.908;2023-04-06T05:32:45;5.65;;;4.13;;
27670;SDS011;15077;49.704;9.908;2023-04-06T05:35:11;6.85;;;4.50;;
27670;SDS011;15077;49.704;9.908;2023-04-06T05:37:38;6.35;;;4.68;;
27670;SDS011;15077;49.704;9.908;2023-04-06T05:40:05;7.78;;;5.28;;
27670;SDS011;15077;49.704;9.908;2023-04-06T05:42:40;6.28;;;4.53;;
27670;SDS011;15077;49.704;9.908;2023-04-06T05:45:10;6.10;;;4.35;;
27670;SDS011;15077;49.704;9.908;2023-04-06T05:47:41;5.85;;;4.22;;
27670;SDS011;15077;49.704;9.908;2023-04-06T05:50:11;8.95;;;4.55;;
27670;SDS011;15077;49.704;9.908;2023-04-06T05:52:38;6.55;;;4.10;;
27670;SDS011;15077;49.704;9.908;2023-04-06T05:55:07;7.13;;;4.15;;
27670;SDS011;15077;49.704;9.908;2023-04-06T05:57:35;8.35;;;5.18;;
27670;SDS011;15077;49.704;9.908;2023-04-06T06:00:00;7.32;;;4.93;;
27670;SDS011;15077;49.704;9.908;2023-04-06T06:02:30;6.18;;;4.70;;
27670;SDS011;15077;49.704;9.908;2023-04-06T06:04:56;6.90;;;5.63;;
27670;SDS011;15077;49.704;9.908;2023-04-06T06:07:22;9.18;;;5.70;;
27670;SDS011;15077;49.704;9.908;2023-04-06T06:09:48;7.45;;;5.65;;
27670;SDS011;15077;49.704;9.908;2023-04-06T06:12:14;8.25;;;6.05;;
27670;SDS011;15077;49.704;9.908;2023-04-06T06:14:40;8.10;;;5.68;;
27670;SDS011;15077;49.704;9.908;2023-04-06T06:17:06;8.57;;;4.88;;
27670;SDS011;15077;49.704;9.908;2023-04-06T06:19:31;5.25;;;4.47;;
27670;SDS011;15077;49.704;9.908;2023-04-06T06:21:57;11.75;;;7.70;;
27670;SDS011;15077;49.704;9.908;2023-04-06T06:24:23;10.32;;;7.28;;
27670;SDS011;15077;49.704;9.908;2023-04-06T06:26:49;11.55;;;7.80;;
27670;SDS011;15077;49.704;9.908;2023-04-06T06:29:15;12.30;;;8.10;;
27670;SDS011;15077;49.704;9.908;2023-04-06T06:31:40;9.43;;;7.07;;
27670;SDS011;15077;49.704;9.908;2023-04-06T06:34:06;8.43;;;6.30;;
27670;SDS011;15077;49.704;9.908;2023-04-06T06:36:32;9.32;;;5.80;;
27670;SDS011;15077;49.704;9.908;2023-04-06T06:38:58;8.32;;;6.18;;
27670;SDS011;15077;49.704;9.908;2023-04-06T06:41:25;12.82;;;8.15;;
27670;SDS011;15077;49.704;9.908;2023-04-06T06:43:51;20.58;;;12.48;;
27670;SDS011;15077;49.704;9.908;2023-04-06T06:46:17;17.17;;;10.20;;
27670;SDS011;15077;49.704;9.908;2023-04-06T06:48:42;11.75;;;8.98;;
27670;SDS011;15077;49.704;9.908;2023-04-06T06:51:08;11.88;;;8.45;;
27670;SDS011;15077;49.704;9.908;2023-04-06T06:53:34;14.05;;;9.93;;
27670;SDS011;15077;49.704;9.908;2023-04-06T06:56:00;11.65;;;9.13;;
27670;SDS011;15077;49.704;9.908;2023-04-06T06:58:26;15.70;;;11.38;;
27670;SDS011;15077;49.704;9.908;2023-04-06T07:00:55;12.50;;;9.18;;
27670;SDS011;15077;49.704;9.908;2023-04-06T07:03:22;12.68;;;8.48;;
27670;SDS011;15077;49.704;9.908;2023-04-06T07:05:49;17.48;;;11.63;;
27670;SDS011;15077;49.704;9.908;2023-04-06T07:08:18;13.30;;;9.60;;
27670;SDS011;15077;49.704;9.908;2023-04-06T07:10:48;11.45;;;8.07;;
27670;SDS011;15077;49.704;9.908;2023-04-06T07:13:17;11.25;;;8.13;;
27670;SDS011;15077;49.704;9.908;2023-04-06T07:15:49;17.65;;;12.65;;
27670;SDS011;15077;49.704;9.908;2023-04-06T07:18:16;19.75;;;13.20;;
27670;SDS011;15077;49.704;9.908;2023-04-06T07:20:42;16.20;;;11.70;;
27670;SDS011;15077;49.704;9.908;2023-04-06T07:23:08;17.70;;;12.85;;
27670;SDS011;15077;49.704;9.908;2023-04-06T07:25:34;17.15;;;12.93;;
27670;SDS011;15077;49.704;9.908;2023-04-06T07:28:01;16.20;;;11.70;;
27670;SDS011;15077;49.704;9.908;2023-04-06T07:30:30;10.95;;;8.20;;
27670;SDS011;15077;49.704;9.908;2023-04-06T07:32:56;12.85;;;10.70;;
27670;SDS011;15077;49.704;9.908;2023-04-06T07:35:24;17.70;;;12.40;;
27670;SDS011;15077;49.704;9.908;2023-04-06T07:37:51;14.23;;;11.05;;
27670;SDS011;15077;49.704;9.908;2023-04-06T07:40:18;16.45;;;11.35;;
27670;SDS011;15077;49.704;9.908;2023-04-06T07:42:44;11.68;;;8.98;;
27670;SDS011;15077;49.704;9.908;2023-04-06T07:45:10;11.10;;;7.25;;
27670;SDS011;15077;49.704;9.908;2023-04-06T07:47:36;10.38;;;8.18;;
27670;SDS011;15077;49.704;9.908;2023-04-06T07:50:02;11.20;;;8.00;;
27670;SDS011;15077;49.704;9.908;2023-04-06T07:52:29;12.45;;;8.93;;
27670;SDS011;15077;49.704;9.908;2023-04-06T07:54:55;10.05;;;7.78;;
27670;SDS011;15077;49.704;9.908;2023-04-06T07:57:20;10.93;;;7.38;;
27670;SDS011;15077;49.704;9.908;2023-04-06T07:59:46;12.32;;;8.48;;
27670;SDS011;15077;49.704;9.908;2023-04-06T08:02:12;12.48;;;8.63;;
27670;SDS011;15077;49.704;9.908;2023-04-06T08:04:37;13.63;;;9.27;;
27670;SDS011;15077;49.704;9.908;2023-04-06T08:07:03;13.27;;;8.75;;
27670;SDS011;15077;49.704;9.908;2023-04-06T08:09:29;12.50;;;8.07;;
27670;SDS011;15077;49.704;9.908;2023-04-06T08:11:54;11.43;;;8.35;;
27670;SDS011;15077;49.704;9.908;2023-04-06T08:14:20;12.93;;;8.52;;
27670;SDS011;15077;49.704;9.908;2023-04-06T08:16:46;9.80;;;7.55;;
27670;SDS011;15077;49.704;9.908;2023-04-06T08:19:12;10.48;;;8.13;;
27670;SDS011;15077;49.704;9.908;2023-04-06T08:21:37;13.23;;;8.27;;
27670;SDS011;15077;49.704;9.908;2023-04-06T08:24:05;7.88;;;6.55;;
27670;SDS011;15077;49.704;9.908;2023-04-06T08:26:31;9.68;;;7.53;;
27670;SDS011;15077;49.704;9.908;2023-04-06T08:28:57;11.82;;;8.18;;
27670;SDS011;15077;49.704;9.908;2023-04-06T08:31:23;14.98;;;9.02;;
27670;SDS011;15077;49.704;9.908;2023-04-06T08:33:48;14.70;;;10.52;;
27670;SDS011;15077;49.704;9.908;2023-04-06T08:36:14;12.77;;;9.73;;
27670;SDS011;15077;49.704;9.908;2023-04-06T08:38:41;16.58;;;10.82;;
27670;SDS011;15077;49.704;9.908;2023-04-06T08:41:11;18.83;;;12.25;;
27670;SDS011;15077;49.704;9.908;2023-04-06T08:43:42;17.00;;;11.23;;
27670;SDS011;15077;49.704;9.908;2023-04-06T08:46:14;12.00;;;8.63;;
27670;SDS011;15077;49.704;9.908;2023-04-06T08:48:41;9.90;;;7.55;;
27670;SDS011;15077;49.704;9.908;2023-04-06T08:51:08;13.63;;;9.40;;
27670;SDS011;15077;49.704;9.908;2023-04-06T08:53:35;11.57;;;9.30;;
27670;SDS011;15077;49.704;9.908;2023-04-06T08:56:02;13.85;;;9.48;;
27670;SDS011;15077;49.704;9.908;2023-04-06T08:58:32;11.48;;;9.00;;
27670;SDS011;15077;49.704;9.908;2023-04-06T09:01:02;14.57;;;9.77;;
27670;SDS011;15077;49.704;9.908;2023-04-06T09:03:35;9.98;;;7.80;;
27670;SDS011;15077;49.704;9.908;2023-04-06T09:06:04;12.32;;;9.10;;
27670;SDS011;15077;49.704;9.908;2023-04-06T09:08:35;10.43;;;8.02;;
27670;SDS011;15077;49.704;9.908;2023-04-06T09:11:04;11.75;;;8.98;;
27670;SDS011;15077;49.704;9.908;2023-04-06T09:13:30;10.02;;;7.75;;
27670;SDS011;15077;49.704;9.908;2023-04-06T09:16:02;13.88;;;9.18;;
27670;SDS011;15077;49.704;9.908;2023-04-06T09:18:31;12.70;;;9.70;;
27670;SDS011;15077;49.704;9.908;2023-04-06T09:21:01;10.32;;;8.57;;
27670;SDS011;15077;49.704;9.908;2023-04-06T09:23:30;10.55;;;8.85;;
27670;SDS011;15077;49.704;9.908;2023-04-06T09:28:49;12.52;;;8.40;;
27670;SDS011;15077;49.704;9.908;2023-04-06T09:31:27;12.43;;;9.20;;
27670;SDS011;15077;49.704;9.908;2023-04-06T09:33:57;13.50;;;9.65;;
27670;SDS011;15077;49.704;9.908;2023-04-06T09:38:59;10.98;;;8.35;;
27670;SDS011;15077;49.704;9.908;2023-04-06T09:41:31;12.77;;;9.23;;
27670;SDS011;15077;49.704;9.908;2023-04-06T09:44:07;10.60;;;9.10;;
27670;SDS011;15077;49.704;9.908;2023-04-06T09:46:38;11.85;;;9.05;;
27670;SDS011;15077;49.704;9.908;2023-04-06T09:49:09;9.33;;;7.60;;
27670;SDS011;15077;49.704;9.908;2023-04-06T09:51:46;14.52;;;9.60;;
27670;SDS011;15077;49.704;9.908;2023-04-06T09:54:18;11.05;;;8.63;;
27670;SDS011;15077;49.704;9.908;2023-04-06T09:56:47;11.65;;;9.32;;
27670;SDS011;15077;49.704;9.908;2023-04-06T09:59:26;11.45;;;8.75;;
27670;SDS011;15077;49.704;9.908;2023-04-06T10:02:05;12.15;;;9.40;;
27670;SDS011;15077;49.704;9.908;2023-04-06T10:07:08;10.93;;;7.43;;
27670;SDS011;15077;49.704;9.908;2023-04-06T10:09:37;11.38;;;9.02;;
27670;SDS011;15077;49.704;9.908;2023-04-06T10:12:06;13.95;;;9.38;;
27670;SDS011;15077;49.704;9.908;2023-04-06T10:14:33;9.93;;;7.85;;
27670;SDS011;15077;49.704;9.908;2023-04-06T10:17:05;12.32;;;8.55;;
27670;SDS011;15077;49.704;9.908;2023-04-06T10:19:40;12.82;;;8.63;;
27670;SDS011;15077;49.704;9.908;2023-04-06T10:22:29;11.05;;;8.18;;
27670;SDS011;15077;49.704;9.908;2023-04-06T10:25:08;11.45;;;8.52;;
27670;SDS011;15077;49.704;9.908;2023-04-06T10:27:34;13.20;;;8.95;;
27670;SDS011;15077;49.704;9.908;2023-04-06T10:30:04;10.48;;;8.07;;
27670;SDS011;15077;49.704;9.908;2023-04-06T10:32:35;16.08;;;9.60;;
27670;SDS011;15077;49.704;9.908;2023-04-06T10:35:07;14.13;;;10.30;;
27670;SDS011;15077;49.704;9.908;2023-04-06T10:37:51;11.93;;;8.45;;
27670;SDS011;15077;49.704;9.908;2023-04-06T10:40:25;9.75;;;7.53;;
27670;SDS011;15077;49.704;9.908;2023-04-06T10:42:52;11.13;;;8.50;;
27670;SDS011;15077;49.704;9.908;2023-04-06T10:45:20;10.85;;;8.52;;
27670;SDS011;15077;49.704;9.908;2023-04-06T10:47:49;11.82;;;8.95;;
27670;SDS011;15077;49.704;9.908;2023-04-06T10:50:17;10.02;;;8.35;;
27670;SDS011;15077;49.704;9.908;2023-04-06T10:52:45;9.45;;;7.60;;
27670;SDS011;15077;49.704;9.908;2023-04-06T10:55:11;11.95;;;9.05;;
27670;SDS011;15077;49.704;9.908;2023-04-06T10:57:41;11.18;;;7.97;;
27670;SDS011;15077;49.704;9.908;2023-04-06T11:00:08;11.90;;;9.93;;
27670;SDS011;15077;49.704;9.908;2023-04-06T11:02:37;17.83;;;10.43;;
27670;SDS011;15077;49.704;9.908;2023-04-06T11:05:03;13.43;;;8.88;;
27670;SDS011;15077;49.704;9.908;2023-04-06T11:07:29;11.43;;;7.63;;
27670;SDS011;15077;49.704;9.908;2023-04-06T11:09:56;11.90;;;8.40;;
27670;SDS011;15077;49.704;9.908;2023-04-06T11:14:55;14.55;;;11.07;;
27670;SDS011;15077;49.704;9.908;2023-04-06T11:17:29;14.45;;;10.88;;
27670;SDS011;15077;49.704;9.908;2023-04-06T11:19:57;13.43;;;7.68;;
27670;SDS011;15077;49.704;9.908;2023-04-06T11:22:24;11.07;;;8.30;;
27670;SDS011;15077;49.704;9.908;2023-04-06T11:24:51;11.75;;;8.35;;
27670;SDS011;15077;49.704;9.908;2023-04-06T11:27:17;12.45;;;8.73;;
27670;SDS011;15077;49.704;9.908;2023-04-06T11:29:45;16.77;;;10.95;;
27670;SDS011;15077;49.704;9.908;2023-04-06T11:32:11;13.30;;;9.40;;
27670;SDS011;15077;49.704;9.908;2023-04-06T11:34:45;15.82;;;9.80;;
27670;SDS011;15077;49.704;9.908;2023-04-06T11:37:13;11.50;;;7.78;;
27670;SDS011;15077;49.704;9.908;2023-04-06T11:39:40;11.65;;;8.35;;
27670;SDS011;15077;49.704;9.908;2023-04-06T11:42:27;16.70;;;9.02;;
27670;SDS011;15077;49.704;9.908;2023-04-06T11:44:55;13.32;;;7.80;;
27670;SDS011;15077;49.704;9.908;2023-04-06T11:47:35;13.88;;;10.52;;
27670;SDS011;15077;49.704;9.908;2023-04-06T11:50:09;10.18;;;7.05;;
27670;SDS011;15077;49.704;9.908;2023-04-06T11:52:39;13.80;;;8.63;;
27670;SDS011;15077;49.704;9.908;2023-04-06T11:55:13;10.02;;;8.25;;
27670;SDS011;15077;49.704;9.908;2023-04-06T11:57:42;11.98;;;7.00;;
27670;SDS011;15077;49.704;9.908;2023-04-06T12:00:09;9.82;;;7.53;;
27670;SDS011;15077;49.704;9.908;2023-04-06T12:02:36;9.50;;;8.00;;
27670;SDS011;15077;49.704;9.908;2023-04-06T12:05:04;12.18;;;8.88;;
27670;SDS011;15077;49.704;9.908;2023-04-06T12:07:31;12.25;;;9.45;;
27670;SDS011;15077;49.704;9.908;2023-04-06T12:09:58;12.88;;;8.18;;
27670;SDS011;15077;49.704;9.908;2023-04-06T12:12:27;12.20;;;8.70;;
27670;SDS011;15077;49.704;9.908;2023-04-06T12:14:53;10.85;;;8.77;;
27670;SDS011;15077;49.704;9.908;2023-04-06T12:17:20;9.93;;;7.25;;
27670;SDS011;15077;49.704;9.908;2023-04-06T12:19:46;10.55;;;7.05;;
27670;SDS011;15077;49.704;9.908;2023-04-06T12:22:12;7.68;;;6.25;;
27670;SDS011;15077;49.704;9.908;2023-04-06T12:24:38;6.13;;;5.15;;
27670;SDS011;15077;49.704;9.908;2023-04-06T12:27:03;8.80;;;7.47;;
27670;SDS011;15077;49.704;9.908;2023-04-06T12:29:29;12.18;;;8.70;;
27670;SDS011;15077;49.704;9.908;2023-04-06T12:31:55;13.88;;;9.88;;
27670;SDS011;15077;49.704;9.908;2023-04-06T12:34:21;12.75;;;8.30;;
27670;SDS011;15077;49.704;9.908;2023-04-06T12:36:47;9.25;;;7.35;;
27670;SDS011;15077;49.704;9.908;2023-04-06T12:39:12;8.02;;;5.72;;
27670;SDS011;15077;49.704;9.908;2023-04-06T12:41:38;9.88;;;7.03;;
27670;SDS011;15077;49.704;9.908;2023-04-06T12:44:06;9.93;;;7.38;;
27670;SDS011;15077;49.704;9.908;2023-04-06T12:46:32;7.78;;;6.45;;
27670;SDS011;15077;49.704;9.908;2023-04-06T12:48:58;9.55;;;6.72;;
27670;SDS011;15077;49.704;9.908;2023-04-06T12:51:24;8.70;;;6.35;;
27670;SDS011;15077;49.704;9.908;2023-04-06T12:53:52;10.02;;;8.05;;
27670;SDS011;15077;49.704;9.908;2023-04-06T12:56:19;9.90;;;8.00;;
27670;SDS011;15077;49.704;9.908;2023-04-06T12:58:47;9.32;;;7.18;;
27670;SDS011;15077;49.704;9.908;2023-04-06T13:01:15;8.52;;;6.60;;
27670;SDS011;15077;49.704;9.908;2023-04-06T13:03:41;13.07;;;9.15;;
27670;SDS011;15077;49.704;9.908;2023-04-06T13:06:08;9.23;;;6.60;;
27670;SDS011;15077;49.704;9.908;2023-04-06T13:08:35;9.20;;;6.47;;
27670;SDS011;15077;49.704;9.908;2023-04-06T13:11:03;8.98;;;5.90;;
27670;SDS011;15077;49.704;9.908;2023-04-06T13:13:30;7.45;;;5.32;;
27670;SDS011;15077;49.704;9.908;2023-04-06T13:16:03;7.45;;;6.10;;
27670;SDS011;15077;49.704;9.908;2023-04-06T13:18:33;5.45;;;4.55;;
27670;SDS011;15077;49.704;9.908;2023-04-06T13:20:59;7.80;;;5.00;;
27670;SDS011;15077;49.704;9.908;2023-04-06T13:23:25;10.40;;;7.20;;
27670;SDS011;15077;49.704;9.908;2023-04-06T13:25:58;7.35;;;5.22;;
27670;SDS011;15077;49.704;9.908;2023-04-06T13:28:31;10.35;;;6.88;;
27670;SDS011;15077;49.704;9.908;2023-04-06T13:30:58;9.73;;;7.35;;
27670;SDS011;15077;49.704;9.908;2023-04-06T13:33:26;10.00;;;7.20;;
27670;SDS011;15077;49.704;9.908;2023-04-06T13:35:53;8.05;;;6.22;;
27670;SDS011;15077;49.704;9.908;2023-04-06T13:38:19;8.30;;;6.60;;
27670;SDS011;15077;49.704;9.908;2023-04-06T13:40:45;9.20;;;6.70;;
27670;SDS011;15077;49.704;9.908;2023-04-06T13:43:11;8.50;;;6.63;;
27670;SDS011;15077;49.704;9.908;2023-04-06T13:45:37;8.07;;;6.82;;
27670;SDS011;15077;49.704;9.908;2023-04-06T13:48:04;11.60;;;6.50;;
27670;SDS011;15077;49.704;9.908;2023-04-06T13:50:30;6.90;;;5.22;;
27670;SDS011;15077;49.704;9.908;2023-04-06T13:52:57;8.13;;;6.53;;
27670;SDS011;15077;49.704;9.908;2023-04-06T13:55:23;6.53;;;5.47;;
27670;SDS011;15077;49.704;9.908;2023-04-06T13:57:51;6.70;;;4.90;;
27670;SDS011;15077;49.704;9.908;2023-04-06T14:00:17;7.80;;;5.78;;
27670;SDS011;15077;49.704;9.908;2023-04-06T14:02:44;7.47;;;4.88;;
27670;SDS011;15077;49.704;9.908;2023-04-06T14:05:10;5.35;;;4.40;;
27670;SDS011;15077;49.704;9.908;2023-04-06T14:07:37;8.07;;;5.28;;
27670;SDS011;15077;49.704;9.908;2023-04-06T14:10:02;9.57;;;6.57;;
27670;SDS011;15077;49.704;9.908;2023-04-06T14:12:29;7.47;;;6.47;;
27670;SDS011;15077;49.704;9.908;2023-04-06T14:14:56;8.38;;;5.68;;
27670;SDS011;15077;49.704;9.908;2023-04-06T14:17:22;6.80;;;4.88;;
27670;SDS011;15077;49.704;9.908;2023-04-06T14:19:47;10.18;;;6.63;;
27670;SDS011;15077;49.704;9.908;2023-04-06T14:22:14;8.88;;;6.75;;
27670;SDS011;15077;49.704;9.908;2023-04-06T14:24:39;8.00;;;6.40;;
27670;SDS011;15077;49.704;9.908;2023-04-06T14:27:05;9.43;;;6.47;;
27670;SDS011;15077;49.704;9.908;2023-04-06T14:29:31;6.13;;;4.75;;
27670;SDS011;15077;49.704;9.908;2023-04-06T14:31:57;5.80;;;4.40;;
27670;SDS011;15077;49.704;9.908;2023-04-06T14:34:28;7.03;;;4.68;;
27670;SDS011;15077;49.704;9.908;2023-04-06T14:36:54;6.00;;;4.80;;
27670;SDS011;15077;49.704;9.908;2023-04-06T14:39:20;8.13;;;5.20;;
27670;SDS011;15077;49.704;9.908;2023-04-06T14:41:46;8.85;;;6.30;;
27670;SDS011;15077;49.704;9.908;2023-04-06T14:44:12;4.93;;;3.90;;
27670;SDS011;15077;49.704;9.908;2023-04-06T14:46:42;6.75;;;4.65;;
27670;SDS011;15077;49.704;9.908;2023-04-06T14:49:08;7.13;;;4.63;;
27670;SDS011;15077;49.704;9.908;2023-04-06T14:51:33;6.93;;;4.90;;
27670;SDS011;15077;49.704;9.908;2023-04-06T14:54:00;5.70;;;4.22;;
27670;SDS011;15077;49.704;9.908;2023-04-06T14:56:28;6.05;;;3.58;;